Time;durP1;ratioP1;P1;durP2;ratioP2;P2;SDS_P1;SDS_P2;PMS_P1;PMS_P2;Temp;Humidity;BMP_temperature;BMP_pressure;BME280_temperature;BME280_humidity;BME280_pressure;Samples;Min_cycle;Max_cycle;Signal;HPM_P1;HPM_P2
2023/04/12 00:02:11;;;;;;;12.32;3.42;;;7.30;99.90;;;;;;6124210;23;20010;-82
2023/04/12 00:04:37;;;;;;;11.93;3.58;;;7.30;99.90;;;;;;6124702;23;20366;-82
2023/04/12 00:07:04;;;;;;;13.35;3.42;;;7.30;99.90;;;;;;6098151;23;20405;-83
2023/04/12 00:09:31;;;;;;;8.68;3.00;;;7.30;99.90;;;;;;6124600;23;20014;-82
2023/04/12 00:11:58;;;;;;;18.45;4.35;;;7.60;99.90;;;;;;6122673;23;20097;-81
2023/04/12 00:14:24;;;;;;;14.40;3.33;;;7.30;99.90;;;;;;6122540;23;20354;-82
2023/04/12 00:16:50;;;;;;;13.25;2.95;;;7.40;99.90;;;;;;6122130;23;20018;-81
2023/04/12 00:19:16;;;;;;;9.90;3.22;;;7.30;99.90;;;;;;6122300;23;20025;-82
2023/04/12 00:21:42;;;;;;;10.93;3.53;;;7.40;99.90;;;;;;6122548;23;20045;-82
2023/04/12 00:24:08;;;;;;;13.48;3.65;;;7.50;99.90;;;;;;6122427;23;20014;-82
2023/04/12 00:26:34;;;;;;;10.57;3.58;;;7.40;99.90;;;;;;6124509;23;20021;-82
2023/04/12 00:29:00;;;;;;;10.90;2.97;;;7.40;99.90;;;;;;6124653;23;20025;-81
2023/04/12 00:31:25;;;;;;;11.15;3.50;;;7.50;99.90;;;;;;6121947;23;20101;-82
2023/04/12 00:33:51;;;;;;;11.70;3.17;;;7.40;99.90;;;;;;6097656;23;20090;-82
2023/04/12 00:36:17;;;;;;;13.35;3.90;;;7.40;99.90;;;;;;6124379;23;20010;-82
2023/04/12 00:38:44;;;;;;;10.63;3.33;;;7.40;99.90;;;;;;6122762;23;20465;-83
2023/04/12 00:41:10;;;;;;;12.80;3.63;;;7.60;99.90;;;;;;6122377;23;20022;-82
2023/04/12 00:43:36;;;;;;;9.93;3.45;;;7.40;99.90;;;;;;6121827;23;20017;-82
2023/04/12 00:46:02;;;;;;;13.48;3.47;;;7.50;99.90;;;;;;6122110;23;20044;-81
2023/04/12 00:48:28;;;;;;;14.65;3.80;;;7.60;99.90;;;;;;6122035;23;20020;-82
2023/04/12 00:50:56;;;;;;;13.13;3.30;;;7.60;99.90;;;;;;6122615;23;20022;-82
2023/04/12 00:53:22;;;;;;;10.63;4.10;;;7.60;99.90;;;;;;6121638;23;20014;-82
2023/04/12 00:55:49;;;;;;;13.52;3.35;;;7.60;99.90;;;;;;6121967;23;20017;-82
2023/04/12 00:58:16;;;;;;;11.73;3.40;;;7.60;99.90;;;;;;6121589;23;20017;-82
2023/04/12 01:00:49;;;;;;;15.13;3.25;;;7.60;99.90;;;;;;6122019;23;20010;-82
2023/04/12 01:03:21;;;;;;;11.82;3.50;;;7.70;99.90;;;;;;6097825;23;20033;-82
2023/04/12 01:06:15;;;;;;;16.23;3.20;;;7.70;99.90;;;;;;6122291;23;20120;-83
2023/04/12 01:09:07;;;;;;;13.52;3.58;;;7.70;99.90;;;;;;6123666;23;20014;-83
2023/04/12 01:11:41;;;;;;;12.75;3.45;;;7.70;99.90;;;;;;6097220;23;20018;-81
2023/04/12 01:14:16;;;;;;;9.48;3.50;;;7.70;99.90;;;;;;6123459;23;20045;-81
2023/04/12 01:16:56;;;;;;;12.90;3.90;;;7.80;99.90;;;;;;6122039;23;20064;-81
2023/04/12 01:19:28;;;;;;;11.63;3.22;;;7.90;99.90;;;;;;6122523;23;20014;-83
2023/04/12 01:22:24;;;;;;;11.57;3.55;;;7.90;99.90;;;;;;6122046;23;20144;-81
2023/04/12 01:25:08;;;;;;;14.02;2.97;;;8.00;99.90;;;;;;6123783;23;20021;-81
2023/04/12 01:27:39;;;;;;;12.15;4.20;;;8.00;99.90;;;;;;6122829;23;20014;-81
2023/04/12 01:30:07;;;;;;;9.18;3.45;;;8.00;99.90;;;;;;6123876;23;20018;-81
2023/04/12 01:32:35;;;;;;;10.90;3.30;;;8.10;99.90;;;;;;6121852;23;20457;-82
2023/04/12 01:35:02;;;;;;;14.45;4.13;;;8.10;99.90;;;;;;6123561;23;20018;-81
2023/04/12 01:37:29;;;;;;;16.30;4.38;;;8.10;99.90;;;;;;6122274;23;20010;-81
2023/04/12 01:39:55;;;;;;;11.45;3.58;;;8.10;99.90;;;;;;6124028;23;20018;-83
2023/04/12 01:42:20;;;;;;;13.88;4.13;;;8.10;99.90;;;;;;6121487;23;20049;-82
2023/04/12 01:44:46;;;;;;;14.55;3.50;;;8.10;99.90;;;;;;6097418;23;20017;-81
2023/04/12 01:47:12;;;;;;;13.77;3.78;;;8.20;99.90;;;;;;6121457;23;20018;-81
2023/04/12 01:49:50;;;;;;;12.65;3.90;;;8.20;99.90;;;;;;6123634;23;20422;-81
2023/04/12 01:52:21;;;;;;;13.52;3.83;;;8.30;99.90;;;;;;6123996;23;20338;-81
2023/04/12 01:54:51;;;;;;;13.43;3.90;;;8.20;99.90;;;;;;6121452;23;20018;-82
2023/04/12 01:57:18;;;;;;;10.70;3.75;;;8.20;99.90;;;;;;6121391;23;20060;-83
2023/04/12 01:59:46;;;;;;;12.35;4.05;;;8.20;99.90;;;;;;6121742;23;20018;-82
2023/04/12 02:02:12;;;;;;;12.63;4.55;;;8.20;99.90;;;;;;6121842;23;20022;-82
2023/04/12 02:04:38;;;;;;;13.63;3.92;;;8.20;99.90;;;;;;6123509;23;20006;-82
2023/04/12 02:07:04;;;;;;;13.77;3.92;;;8.20;99.90;;;;;;6123348;23;20429;-82
2023/04/12 02:09:35;;;;;;;10.82;3.63;;;8.20;99.90;;;;;;6097329;23;20017;-83
2023/04/12 02:12:01;;;;;;;13.13;3.70;;;8.20;99.90;;;;;;6123159;23;20042;-81
2023/04/12 02:14:26;;;;;;;14.85;3.88;;;8.20;99.90;;;;;;6121911;23;20035;-82
2023/04/12 02:16:54;;;;;;;12.90;3.45;;;8.20;99.90;;;;;;6121786;23;20081;-83
2023/04/12 02:19:20;;;;;;;13.13;3.78;;;8.20;99.90;;;;;;6121523;23;20021;-82
2023/04/12 02:21:45;;;;;;;12.80;3.88;;;8.10;99.90;;;;;;6121580;23;20010;-83
2023/04/12 02:24:11;;;;;;;8.52;3.10;;;8.20;99.90;;;;;;6122069;23;20113;-83
2023/04/12 02:26:38;;;;;;;15.30;3.88;;;8.10;99.90;;;;;;6122616;23;20010;-83
2023/04/12 02:29:07;;;;;;;12.38;3.67;;;8.10;99.90;;;;;;6121834;23;20018;-82
2023/04/12 02:31:37;;;;;;;14.00;4.38;;;8.20;99.90;;;;;;6121650;23;20109;-82
2023/04/12 02:34:03;;;;;;;11.00;3.67;;;8.20;99.90;;;;;;6122147;23;20345;-83
2023/04/12 02:36:29;;;;;;;8.85;3.17;;;8.20;99.90;;;;;;6097157;23;20089;-83
2023/04/12 02:38:55;;;;;;;12.93;3.90;;;8.20;99.90;;;;;;6097012;23;20048;-83
2023/04/12 02:41:22;;;;;;;11.77;3.70;;;8.20;99.90;;;;;;6122998;23;20010;-82
2023/04/12 02:43:47;;;;;;;11.48;3.40;;;8.10;99.90;;;;;;6123051;23;20421;-83
2023/04/12 02:46:22;;;;;;;15.15;3.40;;;8.10;99.90;;;;;;6121295;23;20028;-82
2023/04/12 02:48:49;;;;;;;12.00;3.60;;;8.10;99.90;;;;;;6096916;23;20010;-82
2023/04/12 02:51:14;;;;;;;12.40;3.80;;;8.10;99.90;;;;;;6123262;23;20032;-82
2023/04/12 02:53:40;;;;;;;10.93;3.40;;;8.10;99.90;;;;;;6121259;23;20433;-83
2023/04/12 02:56:07;;;;;;;9.40;3.58;;;8.10;99.90;;;;;;6121157;23;20025;-82
2023/04/12 02:58:35;;;;;;;14.55;4.05;;;8.10;99.90;;;;;;6122810;23;20360;-83
2023/04/12 03:01:01;;;;;;;11.52;3.22;;;8.10;99.90;;;;;;6125111;23;20018;-82
2023/04/12 03:03:27;;;;;;;9.32;3.30;;;8.10;99.90;;;;;;6123012;23;20037;-82
2023/04/12 03:05:53;;;;;;;14.30;3.58;;;8.10;99.90;;;;;;6125276;23;20009;-82
2023/04/12 03:08:20;;;;;;;10.50;3.35;;;8.20;99.90;;;;;;6124995;23;20116;-83
2023/04/12 03:10:45;;;;;;;11.50;3.35;;;8.10;99.90;;;;;;6098308;23;20081;-83
2023/04/12 03:13:11;;;;;;;14.25;3.38;;;8.10;99.90;;;;;;6124940;23;20031;-82
2023/04/12 03:15:37;;;;;;;12.15;3.40;;;8.10;99.90;;;;;;6125069;23;20010;-83
2023/04/12 03:18:02;;;;;;;10.18;2.72;;;8.10;99.90;;;;;;6123343;23;20010;-82
2023/04/12 03:20:28;;;;;;;9.40;3.15;;;8.20;99.90;;;;;;6098781;23;20018;-82
2023/04/12 03:22:54;;;;;;;9.57;2.78;;;8.20;99.90;;;;;;6123213;23;20056;-82
2023/04/12 03:25:20;;;;;;;8.07;2.42;;;8.20;99.90;;;;;;6122386;23;20014;-82
2023/04/12 03:27:46;;;;;;;11.00;3.05;;;8.20;99.90;;;;;;6123305;23;20421;-82
2023/04/12 03:30:11;;;;;;;12.48;3.10;;;8.40;99.90;;;;;;6098410;23;20017;-82
2023/04/12 03:32:41;;;;;;;8.93;2.67;;;8.20;99.90;;;;;;6122663;23;20085;-82
2023/04/12 03:35:08;;;;;;;6.82;2.22;;;8.30;99.90;;;;;;6124665;23;20089;-83
2023/04/12 03:37:34;;;;;;;8.30;2.60;;;8.30;99.90;;;;;;6124513;23;20394;-82
2023/04/12 03:40:00;;;;;;;8.73;2.67;;;8.30;99.90;;;;;;6122782;23;20094;-82
2023/04/12 03:42:27;;;;;;;7.55;2.70;;;8.40;99.90;;;;;;6124423;23;20019;-82
2023/04/12 03:44:52;;;;;;;9.35;2.85;;;8.30;99.90;;;;;;6123009;23;20018;-82
2023/04/12 03:47:19;;;;;;;9.40;2.72;;;8.30;99.90;;;;;;6098223;23;20025;-82
2023/04/12 03:49:46;;;;;;;8.25;3.35;;;8.30;99.90;;;;;;6122756;23;20104;-82
2023/04/12 03:52:12;;;;;;;12.32;2.90;;;8.30;99.90;;;;;;6124211;23;20104;-82
2023/04/12 03:54:37;;;;;;;6.97;2.60;;;8.40;99.90;;;;;;6097827;23;20104;-82
2023/04/12 03:57:03;;;;;;;8.23;2.53;;;8.30;99.90;;;;;;6098468;23;20026;-82
2023/04/12 03:59:29;;;;;;;7.40;3.05;;;8.30;99.90;;;;;;6122791;23;20017;-83
2023/04/12 04:01:56;;;;;;;10.10;2.97;;;8.40;99.90;;;;;;6122570;23;20010;-82
2023/04/12 04:04:22;;;;;;;9.25;2.53;;;8.20;99.90;;;;;;6098175;23;20037;-82
2023/04/12 04:06:49;;;;;;;12.45;3.30;;;8.20;99.90;;;;;;6123743;23;20405;-80
2023/04/12 04:09:15;;;;;;;8.50;3.17;;;8.20;99.90;;;;;;6122378;23;20426;-81
2023/04/12 04:11:40;;;;;;;9.02;3.08;;;8.20;99.90;;;;;;6124545;23;20192;-80
2023/04/12 04:14:07;;;;;;;7.55;2.83;;;8.10;99.90;;;;;;6122376;23;20014;-80
2023/04/12 04:16:33;;;;;;;11.35;3.10;;;8.50;99.90;;;;;;6122678;23;20017;-80
2023/04/12 04:18:59;;;;;;;8.65;2.90;;;8.10;99.90;;;;;;6122616;23;20009;-81
2023/04/12 04:21:25;;;;;;;11.52;3.17;;;8.10;99.90;;;;;;6122102;23;20325;-81
2023/04/12 04:23:51;;;;;;;10.27;3.80;;;8.10;99.90;;;;;;6122089;23;20049;-81
2023/04/12 04:26:17;;;;;;;11.82;3.80;;;8.10;99.90;;;;;;6097904;23;20010;-81
2023/04/12 04:28:44;;;;;;;8.07;3.25;;;8.20;99.90;;;;;;6122347;23;20014;-81
2023/04/12 04:31:10;;;;;;;7.03;3.58;;;8.00;99.90;;;;;;6122648;23;20017;-81
2023/04/12 04:33:37;;;;;;;10.00;3.50;;;8.10;99.90;;;;;;6097603;23;20022;-81
2023/04/12 04:36:04;;;;;;;9.98;3.80;;;8.00;99.90;;;;;;6121908;23;20306;-81
2023/04/12 04:38:31;;;;;;;9.43;3.60;;;8.00;99.90;;;;;;6124080;23;20077;-81
2023/04/12 04:41:03;;;;;;;10.52;3.80;;;8.00;99.90;;;;;;6122013;23;20064;-81
2023/04/12 04:43:29;;;;;;;10.10;3.47;;;7.90;99.90;;;;;;6124252;23;20136;-81
2023/04/12 04:45:59;;;;;;;11.98;4.10;;;7.90;99.90;;;;;;6124116;23;20314;-81
2023/04/12 04:48:25;;;;;;;11.48;3.78;;;7.90;99.90;;;;;;6122072;23;20037;-81
2023/04/12 04:50:52;;;;;;;12.27;3.92;;;7.90;99.90;;;;;;6097261;23;20010;-82
2023/04/12 04:53:20;;;;;;;11.85;4.70;;;7.80;99.90;;;;;;6123828;23;20006;-81
2023/04/12 04:55:46;;;;;;;15.43;4.55;;;8.10;99.90;;;;;;6151525;23;20333;-81
2023/04/12 04:58:12;;;;;;;12.95;4.32;;;7.80;99.90;;;;;;6153664;23;20378;-81
2023/04/12 05:00:38;;;;;;;11.35;4.03;;;7.80;99.90;;;;;;6153531;23;20045;-82
2023/04/12 05:03:04;;;;;;;13.68;4.70;;;7.80;99.90;;;;;;6152943;23;20164;-81
2023/04/12 05:05:30;;;;;;;15.63;4.43;;;7.70;99.90;;;;;;6102024;23;20020;-81
2023/04/12 05:07:59;;;;;;;12.13;4.28;;;7.70;99.90;;;;;;6153272;23;20017;-81
2023/04/12 05:10:24;;;;;;;11.82;5.10;;;7.70;99.90;;;;;;6126733;23;20318;-82
2023/04/12 05:12:50;;;;;;;13.00;5.07;;;7.70;99.90;;;;;;6127158;23;20017;-81
2023/04/12 05:15:15;;;;;;;11.45;4.80;;;7.70;99.90;;;;;;6127097;23;20096;-82
2023/04/12 05:17:41;;;;;;;11.45;4.43;;;7.70;99.90;;;;;;6126882;23;20009;-82
2023/04/12 05:20:07;;;;;;;10.55;4.63;;;7.70;99.90;;;;;;6126219;23;20482;-82
2023/04/12 05:22:34;;;;;;;12.13;4.72;;;7.70;99.90;;;;;;6126888;23;20013;-81
2023/04/12 05:25:00;;;;;;;10.80;4.85;;;7.70;99.90;;;;;;6126800;23;20344;-82
2023/04/12 05:27:29;;;;;;;12.95;4.78;;;7.70;99.90;;;;;;6126835;23;20445;-81
2023/04/12 05:29:58;;;;;;;14.07;4.68;;;7.60;99.90;;;;;;6153569;23;20080;-82
2023/04/12 05:32:24;;;;;;;12.93;4.35;;;7.60;99.90;;;;;;6153652;23;20080;-82
2023/04/12 05:34:51;;;;;;;13.07;4.82;;;7.60;99.90;;;;;;6152819;23;20020;-81
2023/04/12 05:37:16;;;;;;;16.20;4.65;;;7.70;99.90;;;;;;6153193;23;20024;-81
2023/04/12 05:39:42;;;;;;;11.63;4.57;;;7.70;99.90;;;;;;6153076;23;20080;-81
2023/04/12 05:42:08;;;;;;;10.65;4.60;;;7.60;99.90;;;;;;6153290;23;20413;-82
2023/04/12 05:44:37;;;;;;;9.02;4.30;;;7.60;99.90;;;;;;6153395;23;20080;-83
2023/04/12 05:47:03;;;;;;;10.32;4.57;;;7.70;99.90;;;;;;6126887;23;20071;-82
2023/04/12 05:49:30;;;;;;;15.43;4.60;;;7.60;99.90;;;;;;6126750;23;20017;-82
2023/04/12 05:51:56;;;;;;;13.57;4.80;;;7.60;99.90;;;;;;6127382;23;20040;-82
2023/04/12 05:54:22;;;;;;;10.90;5.07;;;7.60;99.90;;;;;;6153133;23;20021;-81
2023/04/12 05:56:47;;;;;;;11.57;3.80;;;7.60;99.90;;;;;;6153056;23;20170;-81
2023/04/12 05:59:13;;;;;;;9.32;4.35;;;7.60;99.90;;;;;;6152892;23;20025;-82
2023/04/12 06:01:43;;;;;;;9.77;3.70;;;7.60;99.90;;;;;;6153003;23;20009;-82
2023/04/12 06:04:09;;;;;;;12.82;4.20;;;7.70;99.90;;;;;;6126119;23;20021;-82
2023/04/12 06:06:34;;;;;;;12.93;4.63;;;7.60;99.90;;;;;;6153015;23;20009;-82
2023/04/12 06:09:01;;;;;;;11.93;4.13;;;7.60;99.90;;;;;;6126341;23;20087;-82
2023/04/12 06:11:27;;;;;;;12.50;4.60;;;7.70;99.90;;;;;;6152710;23;20263;-82
2023/04/12 06:13:53;;;;;;;8.63;4.55;;;7.70;99.90;;;;;;6152874;23;20035;-82
2023/04/12 06:16:18;;;;;;;10.90;4.22;;;7.70;99.90;;;;;;6126403;23;20462;-81
2023/04/12 06:18:44;;;;;;;11.52;4.15;;;7.70;99.90;;;;;;6152518;23;20010;-81
2023/04/12 06:21:10;;;;;;;13.98;4.75;;;7.70;99.90;;;;;;6153135;23;20088;-81
2023/04/12 06:23:35;;;;;;;12.85;4.60;;;7.70;99.90;;;;;;6126699;23;20083;-81
2023/04/12 06:26:01;;;;;;;11.80;4.93;;;7.60;99.90;;;;;;6126899;23;20322;-82
2023/04/12 06:28:27;;;;;;;14.75;4.63;;;7.70;99.90;;;;;;6152755;23;20021;-82
2023/04/12 06:30:53;;;;;;;11.63;4.18;;;7.60;99.90;;;;;;6153255;23;20024;-82
2023/04/12 06:33:21;;;;;;;17.30;5.18;;;7.60;99.90;;;;;;6127382;23;20010;-81
2023/04/12 06:35:47;;;;;;;12.65;4.78;;;7.60;99.90;;;;;;6128705;23;20009;-81
2023/04/12 06:38:13;;;;;;;12.82;4.28;;;7.60;99.90;;;;;;6128618;23;20065;-82
2023/04/12 06:40:38;;;;;;;11.73;5.10;;;7.60;99.90;;;;;;6128283;23;20341;-82
2023/04/12 06:43:04;;;;;;;11.13;4.70;;;7.60;99.90;;;;;;6128188;23;20014;-82
2023/04/12 06:45:30;;;;;;;11.05;4.97;;;7.60;99.90;;;;;;6154606;23;20017;-82
2023/04/12 06:47:56;;;;;;;14.07;5.18;;;7.60;99.90;;;;;;6127622;23;20468;-83
2023/04/12 06:50:22;;;;;;;11.20;4.80;;;7.60;99.90;;;;;;6152199;23;20014;-82
2023/04/12 06:52:47;;;;;;;12.73;5.50;;;7.70;99.90;;;;;;6103185;23;20017;-81
2023/04/12 06:55:14;;;;;;;11.45;5.10;;;7.60;99.90;;;;;;6098092;23;20018;-81
2023/04/12 06:57:46;;;;;;;13.88;5.45;;;7.60;99.90;;;;;;6123416;23;20013;-81
2023/04/12 07:00:12;;;;;;;13.80;5.85;;;7.60;99.90;;;;;;6122712;23;20048;-81
2023/04/12 07:02:38;;;;;;;11.45;5.65;;;7.70;99.90;;;;;;6097513;23;20014;-81
2023/04/12 07:05:04;;;;;;;15.13;5.85;;;7.70;99.90;;;;;;6124984;23;20453;-81
2023/04/12 07:07:30;;;;;;;9.40;4.78;;;7.70;99.90;;;;;;6122877;23;20149;-81
2023/04/12 07:09:59;;;;;;;13.02;5.03;;;7.70;99.90;;;;;;6124574;23;20105;-81
2023/04/12 07:12:25;;;;;;;13.60;5.00;;;7.80;99.90;;;;;;6098267;23;20032;-81
2023/04/12 07:14:50;;;;;;;13.25;4.85;;;7.80;99.90;;;;;;6124941;23;20092;-81
2023/04/12 07:17:16;;;;;;;8.25;4.45;;;7.80;99.90;;;;;;6122414;23;20014;-81
2023/04/12 07:19:42;;;;;;;11.57;4.82;;;7.80;99.90;;;;;;6124945;23;20014;-81
2023/04/12 07:22:08;;;;;;;13.52;4.95;;;7.80;99.90;;;;;;6098232;23;20438;-80
2023/04/12 07:24:34;;;;;;;9.65;4.50;;;7.80;99.90;;;;;;6123005;23;20016;-81
2023/04/12 07:26:59;;;;;;;11.02;4.53;;;7.80;99.90;;;;;;6125111;23;20496;-81
2023/04/12 07:29:25;;;;;;;10.88;4.57;;;7.80;99.90;;;;;;6123227;23;20053;-81
2023/04/12 07:31:50;;;;;;;13.23;5.38;;;7.80;99.90;;;;;;6097705;23;20025;-81
2023/04/12 07:34:16;;;;;;;12.05;5.93;;;7.80;99.90;;;;;;6124742;23;20464;-81
2023/04/12 07:36:43;;;;;;;16.05;6.07;;;7.90;99.90;;;;;;6122458;23;20462;-82
2023/04/12 07:39:11;;;;;;;10.07;4.53;;;7.80;99.90;;;;;;6122571;23;20123;-82
2023/04/12 07:41:37;;;;;;;10.20;4.72;;;7.90;99.90;;;;;;6122178;23;20332;-84
2023/04/12 07:44:03;;;;;;;15.43;5.60;;;7.80;99.90;;;;;;6121624;23;20389;-82
2023/04/12 07:46:30;;;;;;;10.75;5.38;;;7.90;99.90;;;;;;6122448;23;20029;-82
2023/04/12 07:48:55;;;;;;;12.13;5.65;;;7.90;99.90;;;;;;6122785;23;20136;-82
2023/04/12 07:51:21;;;;;;;12.15;4.60;;;7.90;99.90;;;;;;6122227;23;20503;-83
2023/04/12 07:53:50;;;;;;;12.23;5.25;;;7.90;99.90;;;;;;6125655;23;20508;-83
2023/04/12 07:56:16;;;;;;;12.00;5.47;;;7.90;99.90;;;;;;6127081;23;20026;-82
2023/04/12 07:58:41;;;;;;;10.65;5.47;;;7.90;99.90;;;;;;6102556;23;20017;-83
2023/04/12 08:01:07;;;;;;;15.88;6.35;;;7.90;99.90;;;;;;6103184;23;20006;-83
2023/04/12 08:03:33;;;;;;;12.07;5.90;;;7.90;99.90;;;;;;6127030;23;20013;-85
2023/04/12 08:05:58;;;;;;;10.02;5.25;;;7.90;99.90;;;;;;6153387;23;20014;-82
2023/04/12 08:08:24;;;;;;;10.45;6.03;;;8.00;99.90;;;;;;6154206;23;20056;-82
2023/04/12 08:10:51;;;;;;;9.77;5.88;;;8.00;99.90;;;;;;6154130;23;20018;-82
2023/04/12 08:13:16;;;;;;;9.65;5.25;;;8.00;99.90;;;;;;6126802;23;20449;-82
2023/04/12 08:15:46;;;;;;;8.23;5.35;;;8.00;99.90;;;;;;6127851;23;20017;-82
2023/04/12 08:18:12;;;;;;;8.57;5.47;;;8.00;99.90;;;;;;6127340;23;20017;-82
2023/04/12 08:20:39;;;;;;;12.30;6.25;;;8.10;99.90;;;;;;6153905;23;20015;-82
2023/04/12 08:23:05;;;;;;;10.68;5.28;;;8.10;99.90;;;;;;6102444;23;20009;-84
2023/04/12 08:25:31;;;;;;;9.85;6.47;;;8.20;99.90;;;;;;6127030;23;20321;-82
2023/04/12 08:27:56;;;;;;;10.73;5.65;;;8.30;99.90;;;;;;6126653;23;20021;-81
2023/04/12 08:30:25;;;;;;;11.00;5.22;;;8.30;99.90;;;;;;6126682;23;20503;-81
2023/04/12 08:32:52;;;;;;;11.60;5.68;;;8.30;99.90;;;;;;6152451;23;20014;-81
2023/04/12 08:35:17;;;;;;;9.57;5.60;;;8.40;99.90;;;;;;6153529;23;20010;-81
2023/04/12 08:37:43;;;;;;;9.20;5.65;;;8.30;99.90;;;;;;6127569;23;20104;-81
2023/04/12 08:40:09;;;;;;;11.38;6.13;;;8.30;99.90;;;;;;6153830;23;20009;-81
2023/04/12 08:42:36;;;;;;;11.30;5.70;;;8.30;99.90;;;;;;6153794;23;20006;-81
2023/04/12 08:45:06;;;;;;;8.35;4.90;;;8.60;99.90;;;;;;6127995;23;20014;-80
2023/04/12 08:47:33;;;;;;;8.95;5.50;;;8.40;99.90;;;;;;6127391;23;20010;-81
2023/04/12 08:50:00;;;;;;;9.77;6.15;;;8.40;99.90;;;;;;6154230;23;20039;-81
2023/04/12 08:52:34;;;;;;;6.75;5.57;;;8.20;99.90;;;;;;6127062;23;20040;-81
2023/04/12 08:55:02;;;;;;;9.15;6.38;;;8.50;99.90;;;;;;6122094;23;20072;-81
2023/04/12 08:57:28;;;;;;;9.23;6.32;;;8.60;99.90;;;;;;6121877;23;20344;-81
2023/04/12 08:59:55;;;;;;;8.23;6.35;;;8.60;99.90;;;;;;6097921;23;20052;-81
2023/04/12 09:02:21;;;;;;;9.43;5.25;;;8.60;99.90;;;;;;6123166;23;20018;-81
2023/04/12 09:04:51;;;;;;;8.82;5.55;;;8.60;99.90;;;;;;6122660;23;20017;-81
2023/04/12 09:07:17;;;;;;;10.07;5.82;;;8.60;99.90;;;;;;6121021;23;20066;-81
2023/04/12 09:09:45;;;;;;;8.82;6.38;;;8.60;99.90;;;;;;6123915;23;20429;-81
2023/04/12 09:12:11;;;;;;;9.60;6.35;;;8.50;99.90;;;;;;6123709;23;20444;-81
2023/04/12 09:14:38;;;;;;;7.47;6.18;;;8.50;99.90;;;;;;6122830;23;20147;-81
2023/04/12 09:17:04;;;;;;;10.52;6.30;;;8.50;99.90;;;;;;6124422;23;20014;-80
2023/04/12 09:19:34;;;;;;;7.72;6.13;;;8.50;99.90;;;;;;6124230;23;20014;-81
2023/04/12 09:22:01;;;;;;;9.98;6.70;;;8.50;99.90;;;;;;6122746;23;20010;-81
2023/04/12 09:24:28;;;;;;;10.18;6.80;;;8.70;99.90;;;;;;6124272;23;20065;-81
2023/04/12 09:27:05;;;;;;;11.20;6.93;;;8.50;99.90;;;;;;6121760;23;20014;-81
2023/04/12 09:29:31;;;;;;;11.07;7.28;;;8.60;99.90;;;;;;6123078;23;20097;-80
2023/04/12 09:32:01;;;;;;;10.10;7.38;;;8.60;99.90;;;;;;6124555;23;20080;-81
2023/04/12 09:34:27;;;;;;;10.35;8.48;;;8.70;99.90;;;;;;6097788;23;20052;-81
2023/04/12 09:36:53;;;;;;;10.60;8.48;;;8.70;99.90;;;;;;6124354;23;20014;-81
2023/04/12 09:39:18;;;;;;;11.35;9.80;;;8.80;99.90;;;;;;6122835;23;20032;-81
2023/04/12 09:41:44;;;;;;;9.57;8.50;;;9.00;99.90;;;;;;6121602;23;20090;-80
2023/04/12 09:44:28;;;;;;;9.25;7.43;;;9.20;99.90;;;;;;6122538;23;20194;-80
2023/04/12 09:46:55;;;;;;;9.88;8.88;;;9.40;99.90;;;;;;6124184;23;20492;-81
2023/04/12 09:49:38;;;;;;;12.10;10.90;;;9.70;99.90;;;;;;6122492;23;20117;-81
2023/04/12 09:52:06;;;;;;;9.43;8.52;;;10.00;99.90;;;;;;6122589;23;20053;-80
2023/04/12 09:54:38;;;;;;;8.48;7.60;;;10.20;99.90;;;;;;6122013;23;20417;-81
2023/04/12 09:57:06;;;;;;;8.32;7.38;;;10.30;99.90;;;;;;6122845;23;20017;-81
2023/04/12 09:59:39;;;;;;;7.90;7.10;;;10.40;99.90;;;;;;6122764;23;20085;-81
2023/04/12 10:02:10;;;;;;;8.10;7.25;;;10.40;99.90;;;;;;6122071;23;20013;-81
2023/04/12 10:04:38;;;;;;;8.48;6.45;;;10.60;99.90;;;;;;6121943;23;20033;-81
2023/04/12 10:07:04;;;;;;;8.30;6.68;;;10.70;99.90;;;;;;6097828;23;20464;-81
2023/04/12 10:09:31;;;;;;;8.95;6.60;;;10.80;99.90;;;;;;6099254;23;20010;-81
2023/04/12 10:11:58;;;;;;;8.65;6.32;;;10.80;99.90;;;;;;6126128;23;20018;-81
2023/04/12 10:14:27;;;;;;;8.30;6.78;;;11.00;99.90;;;;;;6124103;23;20056;-81
2023/04/12 10:16:56;;;;;;;8.15;5.95;;;11.10;99.90;;;;;;6124067;23;20010;-81
2023/04/12 10:19:25;;;;;;;8.10;6.00;;;11.10;99.90;;;;;;6123674;23;20018;-81
2023/04/12 10:21:51;;;;;;;7.10;5.68;;;11.20;99.90;;;;;;6124048;23;20064;-81
2023/04/12 10:24:17;;;;;;;8.52;5.43;;;11.20;99.90;;;;;;6125260;23;20013;-81
2023/04/12 10:26:43;;;;;;;7.47;5.60;;;11.20;99.90;;;;;;6125917;23;20041;-80
2023/04/12 10:29:24;;;;;;;8.75;5.53;;;11.40;99.90;;;;;;6124258;23;20342;-81
2023/04/12 10:31:51;;;;;;;7.10;5.57;;;11.60;99.90;;;;;;6124136;23;20375;-81
2023/04/12 10:34:17;;;;;;;11.45;5.88;;;12.00;99.90;;;;;;6123569;23;20082;-81
2023/04/12 10:36:54;;;;;;;9.40;4.80;;;12.10;99.90;;;;;;6124212;23;20050;-81
2023/04/12 10:39:36;;;;;;;11.90;5.10;;;12.20;99.90;;;;;;6098931;23;20018;-81
2023/04/12 10:42:33;;;;;;;9.18;5.15;;;12.30;99.90;;;;;;6124257;23;20010;-81
2023/04/12 10:45:32;;;;;;;14.75;5.72;;;12.50;99.90;;;;;;6123610;23;20014;-82
2023/04/12 10:48:00;;;;;;;9.50;4.82;;;12.70;99.90;;;;;;6123245;23;20021;-81
2023/04/12 10:50:32;;;;;;;11.10;4.82;;;12.90;99.90;;;;;;6124994;23;20029;-81
2023/04/12 10:53:16;;;;;;;7.90;4.57;;;13.10;99.90;;;;;;6124463;23;20338;-81
2023/04/12 10:55:46;;;;;;;12.15;4.45;;;13.20;99.90;;;;;;6122805;23;20018;-82
2023/04/12 10:58:46;;;;;;;8.57;4.00;;;13.30;99.90;;;;;;6125033;23;20093;-81
2023/04/12 11:01:12;;;;;;;9.60;4.30;;;13.40;99.90;;;;;;6098637;23;20022;-81
2023/04/12 11:04:15;;;;;;;10.90;4.40;;;13.60;99.90;;;;;;6122742;23;20461;-81
2023/04/12 11:06:52;;;;;;;9.90;3.97;;;13.50;99.90;;;;;;6125105;23;20021;-82
2023/04/12 11:09:33;;;;;;;9.85;3.88;;;13.60;99.90;;;;;;6097921;23;20045;-82
2023/04/12 11:12:05;;;;;;;10.25;3.80;;;13.70;99.90;;;;;;6122880;23;20014;-82
2023/04/12 11:14:35;;;;;;;11.13;3.58;;;13.70;99.90;;;;;;6122994;23;20018;-82
2023/04/12 11:17:15;;;;;;;16.35;4.38;;;13.80;99.90;;;;;;6122944;23;20512;-81
2023/04/12 11:19:42;;;;;;;11.93;4.20;;;13.90;99.90;;;;;;6122687;23;20021;-82
2023/04/12 11:22:10;;;;;;;9.48;4.05;;;13.90;99.90;;;;;;6097837;23;20044;-82
2023/04/12 11:24:46;;;;;;;10.98;3.92;;;14.00;99.90;;;;;;6122832;23;20088;-82
2023/04/12 11:27:11;;;;;;;10.95;4.13;;;14.00;99.90;;;;;;6122774;23;20046;-82
2023/04/12 11:29:38;;;;;;;11.25;3.72;;;14.00;99.90;;;;;;6122827;23;20021;-81
2023/04/12 11:32:12;;;;;;;10.52;3.83;;;14.10;99.90;;;;;;6123185;23;20338;-82
2023/04/12 11:34:37;;;;;;;;;;;14.30;99.90;;;;;;6123065;23;20010;-81
2023/04/12 11:37:07;;;;;;;13.43;3.42;;;14.40;99.90;;;;;;6122148;23;19913;-82
2023/04/12 11:39:33;;;;;;;10.10;3.10;;;14.50;99.90;;;;;;6124710;23;20089;-82
2023/04/12 11:42:02;;;;;;;10.02;3.28;;;14.50;99.90;;;;;;6122585;23;20013;-81
2023/04/12 11:44:28;;;;;;;10.13;3.33;;;14.60;99.90;;;;;;6122825;23;20013;-82
2023/04/12 11:46:54;;;;;;;14.25;4.80;;;14.30;99.90;;;;;;6122434;23;20358;-81
2023/04/12 11:49:22;;;;;;;12.50;3.22;;;14.40;99.90;;;;;;6098241;23;20692;-84
2023/04/12 11:51:48;;;;;;;10.25;2.80;;;14.30;99.90;;;;;;6122205;23;20453;-83
2023/04/12 11:54:14;;;;;;;11.15;3.50;;;14.10;99.90;;;;;;6097825;23;20057;-83
2023/04/12 11:56:40;;;;;;;10.65;2.92;;;13.90;99.90;;;;;;6123075;23;20018;-82
2023/04/12 11:59:07;;;;;;;9.30;3.22;;;14.00;99.90;;;;;;6098271;23;20275;-81
2023/04/12 12:01:36;;;;;;;10.93;3.05;;;14.10;99.90;;;;;;6122496;23;20025;-81
2023/04/12 12:04:03;;;;;;;12.65;3.33;;;14.20;99.90;;;;;;6098262;23;20013;-80
2023/04/12 12:06:30;;;;;;;10.27;2.75;;;14.10;99.90;;;;;;6122342;23;20010;-80
2023/04/12 12:08:56;;;;;;;14.70;3.35;;;14.00;99.90;;;;;;6123239;23;20037;-79
2023/04/12 12:11:23;;;;;;;8.05;2.83;;;14.00;99.90;;;;;;6098157;23;20014;-82
2023/04/12 12:13:51;;;;;;;13.57;3.03;;;14.10;99.90;;;;;;6123188;23;20085;-82
2023/04/12 12:16:18;;;;;;;16.08;3.33;;;14.00;99.90;;;;;;6120393;23;20337;-82
2023/04/12 12:18:45;;;;;;;10.35;3.30;;;14.20;99.90;;;;;;6097839;23;20073;-82
2023/04/12 12:21:13;;;;;;;13.55;3.00;;;14.50;99.90;;;;;;6123612;23;20018;-82
2023/04/12 12:23:41;;;;;;;14.23;3.47;;;14.50;99.90;;;;;;6122693;23;20010;-83
2023/04/12 12:26:07;;;;;;;14.40;3.35;;;14.60;99.90;;;;;;6098115;23;20180;-82
2023/04/12 12:28:39;;;;;;;20.23;3.97;;;14.70;99.90;;;;;;6122823;23;20136;-82
2023/04/12 12:31:06;;;;;;;15.75;3.28;;;14.70;99.90;;;;;;6123596;23;20098;-81
2023/04/12 12:33:38;;;;;;;18.23;3.70;;;14.70;99.90;;;;;;6121989;23;20100;-82
2023/04/12 12:36:05;;;;;;;17.58;4.40;;;14.70;99.90;;;;;;6122896;23;20038;-82
2023/04/12 12:38:38;;;;;;;15.48;3.88;;;14.60;99.90;;;;;;6121888;23;20173;-82
2023/04/12 12:41:22;;;;;;;18.45;4.43;;;14.60;99.90;;;;;;6097337;23;20014;-82
2023/04/12 12:43:48;;;;;;;;;;;14.80;99.90;;;;;;6124634;23;20018;-83
2023/04/12 12:46:14;;;;;;;18.08;3.60;;;14.90;99.90;;;;;;6122103;23;19913;-82
2023/04/12 12:48:48;;;;;;;15.05;2.72;;;15.00;99.90;;;;;;6122996;23;20021;-82
2023/04/12 12:51:19;;;;;;;14.63;3.25;;;15.10;99.90;;;;;;6121651;23;20024;-82
2023/04/12 12:53:45;;;;;;;12.68;3.22;;;15.10;99.90;;;;;;6125120;23;20017;-82